sensor_id;sensor_type;location;lat;lon;timestamp;temperature;humidity
53286;DHT22;39171;45.550;12.074;2023-04-24T00:05:25;17.80;70.90
53286;DHT22;39171;45.550;12.074;2023-04-24T00:11:26;17.80;71.10
53286;DHT22;39171;45.550;12.074;2023-04-24T00:17:27;17.80;71.20
53286;DHT22;39171;45.550;12.074;2023-04-24T00:23:29;17.80;71.30
53286;DHT22;39171;45.550;12.074;2023-04-24T00:29:30;17.80;71.40
53286;DHT22;39171;45.550;12.074;2023-04-24T00:35:31;17.80;71.50
53286;DHT22;39171;45.550;12.074;2023-04-24T00:41:32;17.80;71.60
53286;DHT22;39171;45.550;12.074;2023-04-24T00:47:33;17.80;71.70
53286;DHT22;39171;45.550;12.074;2023-04-24T00:53:35;17.80;71.70
53286;DHT22;39171;45.550;12.074;2023-04-24T00:59:36;17.80;71.90
53286;DHT22;39171;45.550;12.074;2023-04-24T01:05:37;17.80;72.00
53286;DHT22;39171;45.550;12.074;2023-04-24T01:11:39;17.80;72.00
53286;DHT22;39171;45.550;12.074;2023-04-24T01:17:40;17.70;72.10
53286;DHT22;39171;45.550;12.074;2023-04-24T01:23:45;17.80;72.30
53286;DHT22;39171;45.550;12.074;2023-04-24T01:29:46;17.80;72.30
53286;DHT22;39171;45.550;12.074;2023-04-24T01:35:50;17.80;72.30
53286;DHT22;39171;45.550;12.074;2023-04-24T01:41:52;17.70;72.40
53286;DHT22;39171;45.550;12.074;2023-04-24T01:47:53;17.70;72.40
53286;DHT22;39171;45.550;12.074;2023-04-24T01:53:55;17.70;72.50
53286;DHT22;39171;45.550;12.074;2023-04-24T01:59:56;17.80;72.60
53286;DHT22;39171;45.550;12.074;2023-04-24T02:05:57;17.70;72.60
53286;DHT22;39171;45.550;12.074;2023-04-24T02:11:59;17.80;72.60
53286;DHT22;39171;45.550;12.074;2023-04-24T02:18:01;17.70;72.70
53286;DHT22;39171;45.550;12.074;2023-04-24T02:24:02;17.70;72.90
53286;DHT22;39171;45.550;12.074;2023-04-24T02:30:04;17.70;72.70
53286;DHT22;39171;45.550;12.074;2023-04-24T02:36:06;17.70;72.80
53286;DHT22;39171;45.550;12.074;2023-04-24T02:42:07;17.70;73.00
53286;DHT22;39171;45.550;12.074;2023-04-24T02:48:09;17.70;73.10
53286;DHT22;39171;45.550;12.074;2023-04-24T02:54:11;17.70;73.20
53286;DHT22;39171;45.550;12.074;2023-04-24T03:00:12;17.70;73.30
53286;DHT22;39171;45.550;12.074;2023-04-24T03:06:14;17.70;73.20
53286;DHT22;39171;45.550;12.074;2023-04-24T03:12:16;17.70;73.20
53286;DHT22;39171;45.550;12.074;2023-04-24T03:18:18;17.70;73.40
53286;DHT22;39171;45.550;12.074;2023-04-24T03:24:21;17.70;73.50
53286;DHT22;39171;45.550;12.074;2023-04-24T03:30:24;17.70;73.60
53286;DHT22;39171;45.550;12.074;2023-04-24T03:36:30;17.70;73.70
53286;DHT22;39171;45.550;12.074;2023-04-24T03:42:32;17.70;73.70
53286;DHT22;39171;45.550;12.074;2023-04-24T03:48:35;17.70;73.60
53286;DHT22;39171;45.550;12.074;2023-04-24T03:54:36;17.70;73.70
53286;DHT22;39171;45.550;12.074;2023-04-24T04:00:40;17.70;73.70
53286;DHT22;39171;45.550;12.074;2023-04-24T04:07:00;17.70;73.80
53286;DHT22;39171;45.550;12.074;2023-04-24T04:13:05;17.70;73.70
53286;DHT22;39171;45.550;12.074;2023-04-24T04:19:07;17.70;73.80
53286;DHT22;39171;45.550;12.074;2023-04-24T04:25:09;17.70;73.80
53286;DHT22;39171;45.550;12.074;2023-04-24T04:31:13;17.70;73.80
53286;DHT22;39171;45.550;12.074;2023-04-24T04:37:15;17.70;73.90
53286;DHT22;39171;45.550;12.074;2023-04-24T04:43:40;17.70;73.90
53286;DHT22;39171;45.550;12.074;2023-04-24T04:49:43;17.70;73.90
53286;DHT22;39171;45.550;12.074;2023-04-24T04:55:51;17.70;74.00
53286;DHT22;39171;45.550;12.074;2023-04-24T05:01:54;17.70;74.10
53286;DHT22;39171;45.550;12.074;2023-04-24T05:07:56;17.70;74.30
53286;DHT22;39171;45.550;12.074;2023-04-24T05:13:57;17.70;74.20
53286;DHT22;39171;45.550;12.074;2023-04-24T05:20:07;17.70;74.40
53286;DHT22;39171;45.550;12.074;2023-04-24T05:26:09;17.60;74.40
53286;DHT22;39171;45.550;12.074;2023-04-24T05:32:10;17.70;74.70
53286;DHT22;39171;45.550;12.074;2023-04-24T05:38:14;17.60;74.70
53286;DHT22;39171;45.550;12.074;2023-04-24T05:44:19;17.70;74.50
53286;DHT22;39171;45.550;12.074;2023-04-24T05:50:20;17.70;74.60
53286;DHT22;39171;45.550;12.074;2023-04-24T05:56:21;17.70;74.80
53286;DHT22;39171;45.550;12.074;2023-04-24T06:02:25;17.60;74.30
53286;DHT22;39171;45.550;12.074;2023-04-24T06:08:27;17.70;74.60
53286;DHT22;39171;45.550;12.074;2023-04-24T06:14:28;17.60;74.70
53286;DHT22;39171;45.550;12.074;2023-04-24T06:20:48;17.60;74.50
53286;DHT22;39171;45.550;12.074;2023-04-24T06:26:49;17.60;74.70
53286;DHT22;39171;45.550;12.074;2023-04-24T06:32:50;17.60;74.70
53286;DHT22;39171;45.550;12.074;2023-04-24T06:38:52;17.60;74.80
53286;DHT22;39171;45.550;12.074;2023-04-24T06:44:53;17.70;74.80
53286;DHT22;39171;45.550;12.074;2023-04-24T06:50:54;17.60;74.70
53286;DHT22;39171;45.550;12.074;2023-04-24T06:56:55;17.60;74.70
53286;DHT22;39171;45.550;12.074;2023-04-24T07:02:58;17.70;74.90
53286;DHT22;39171;45.550;12.074;2023-04-24T07:08:59;17.70;74.90
53286;DHT22;39171;45.550;12.074;2023-04-24T07:15:01;17.70;74.90
53286;DHT22;39171;45.550;12.074;2023-04-24T07:21:02;17.70;74.90
53286;DHT22;39171;45.550;12.074;2023-04-24T07:27:04;17.70;74.80
53286;DHT22;39171;45.550;12.074;2023-04-24T07:33:05;17.70;74.70
53286;DHT22;39171;45.550;12.074;2023-04-24T07:39:07;17.70;74.70
53286;DHT22;39171;45.550;12.074;2023-04-24T07:45:09;17.70;74.80
53286;DHT22;39171;45.550;12.074;2023-04-24T07:51:10;17.60;74.90
53286;DHT22;39171;45.550;12.074;2023-04-24T07:57:14;17.60;75.10
53286;DHT22;39171;45.550;12.074;2023-04-24T08:03:15;17.60;75.90
53286;DHT22;39171;45.550;12.074;2023-04-24T08:09:19;17.60;75.70
53286;DHT22;39171;45.550;12.074;2023-04-24T08:15:20;17.50;75.70
53286;DHT22;39171;45.550;12.074;2023-04-24T08:21:22;17.50;76.10
53286;DHT22;39171;45.550;12.074;2023-04-24T08:27:23;17.40;76.30
53286;DHT22;39171;45.550;12.074;2023-04-24T08:33:24;17.50;76.40
53286;DHT22;39171;45.550;12.074;2023-04-24T08:39:30;17.50;76.50
53286;DHT22;39171;45.550;12.074;2023-04-24T08:45:32;17.50;76.50
53286;DHT22;39171;45.550;12.074;2023-04-24T08:51:33;17.50;76.50
53286;DHT22;39171;45.550;12.074;2023-04-24T08:57:36;17.50;76.50
53286;DHT22;39171;45.550;12.074;2023-04-24T09:03:39;17.50;76.60
53286;DHT22;39171;45.550;12.074;2023-04-24T09:09:40;17.50;76.30
53286;DHT22;39171;45.550;12.074;2023-04-24T09:15:42;17.50;76.50
53286;DHT22;39171;45.550;12.074;2023-04-24T09:21:45;17.50;76.30
53286;DHT22;39171;45.550;12.074;2023-04-24T09:27:46;17.50;76.30
53286;DHT22;39171;45.550;12.074;2023-04-24T09:33:58;17.50;76.40
53286;DHT22;39171;45.550;12.074;2023-04-24T09:46:13;17.50;76.50
53286;DHT22;39171;45.550;12.074;2023-04-24T09:52:14;17.50;76.50
53286;DHT22;39171;45.550;12.074;2023-04-24T09:58:16;17.50;76.70
53286;DHT22;39171;45.550;12.074;2023-04-24T10:10:19;17.60;76.40
53286;DHT22;39171;45.550;12.074;2023-04-24T10:16:21;17.60;76.40
53286;DHT22;39171;45.550;12.074;2023-04-24T10:22:23;17.60;77.00
53286;DHT22;39171;45.550;12.074;2023-04-24T10:28:24;17.60;76.90
53286;DHT22;39171;45.550;12.074;2023-04-24T10:34:26;17.50;77.00
53286;DHT22;39171;45.550;12.074;2023-04-24T10:40:32;17.50;77.40
53286;DHT22;39171;45.550;12.074;2023-04-24T10:46:34;17.50;77.50
53286;DHT22;39171;45.550;12.074;2023-04-24T10:52:45;17.50;77.30
53286;DHT22;39171;45.550;12.074;2023-04-24T10:58:50;17.50;77.30
53286;DHT22;39171;45.550;12.074;2023-04-24T11:04:53;17.50;77.00
53286;DHT22;39171;45.550;12.074;2023-04-24T11:10:59;17.50;76.80
53286;DHT22;39171;45.550;12.074;2023-04-24T11:17:00;17.60;76.50
53286;DHT22;39171;45.550;12.074;2023-04-24T11:23:03;17.60;76.40
53286;DHT22;39171;45.550;12.074;2023-04-24T11:30:28;17.50;76.40
53286;DHT22;39171;45.550;12.074;2023-04-24T11:35:55;17.50;76.30
53286;DHT22;39171;45.550;12.074;2023-04-24T11:42:01;17.50;76.20
53286;DHT22;39171;45.550;12.074;2023-04-24T11:48:03;17.60;76.10
53286;DHT22;39171;45.550;12.074;2023-04-24T11:54:07;17.60;75.80
53286;DHT22;39171;45.550;12.074;2023-04-24T12:00:08;17.70;75.50
53286;DHT22;39171;45.550;12.074;2023-04-24T12:06:14;17.70;75.50
53286;DHT22;39171;45.550;12.074;2023-04-24T12:12:16;17.70;75.50
53286;DHT22;39171;45.550;12.074;2023-04-24T12:18:17;17.70;75.40
53286;DHT22;39171;45.550;12.074;2023-04-24T12:24:19;17.70;74.90
53286;DHT22;39171;45.550;12.074;2023-04-24T12:30:20;17.70;74.70
53286;DHT22;39171;45.550;12.074;2023-04-24T12:36:21;17.70;74.50
53286;DHT22;39171;45.550;12.074;2023-04-24T12:42:26;17.70;74.40
53286;DHT22;39171;45.550;12.074;2023-04-24T12:48:28;17.80;74.30
53286;DHT22;39171;45.550;12.074;2023-04-24T12:54:32;17.80;74.30
53286;DHT22;39171;45.550;12.074;2023-04-24T13:00:33;17.80;74.20
53286;DHT22;39171;45.550;12.074;2023-04-24T13:06:34;17.80;74.00
53286;DHT22;39171;45.550;12.074;2023-04-24T13:12:35;17.80;74.10
53286;DHT22;39171;45.550;12.074;2023-04-24T13:18:37;17.80;73.80
53286;DHT22;39171;45.550;12.074;2023-04-24T13:24:38;17.90;73.80
53286;DHT22;39171;45.550;12.074;2023-04-24T13:30:41;17.90;73.70
53286;DHT22;39171;45.550;12.074;2023-04-24T13:36:43;17.90;73.40
53286;DHT22;39171;45.550;12.074;2023-04-24T13:42:44;17.90;73.20
53286;DHT22;39171;45.550;12.074;2023-04-24T13:48:45;18.00;72.70
53286;DHT22;39171;45.550;12.074;2023-04-24T13:54:46;18.10;72.10
53286;DHT22;39171;45.550;12.074;2023-04-24T14:00:47;18.20;71.70
53286;DHT22;39171;45.550;12.074;2023-04-24T14:06:49;18.20;71.20
53286;DHT22;39171;45.550;12.074;2023-04-24T14:12:50;18.20;70.50
53286;DHT22;39171;45.550;12.074;2023-04-24T14:18:51;18.30;69.90
53286;DHT22;39171;45.550;12.074;2023-04-24T14:24:52;18.40;69.70
53286;DHT22;39171;45.550;12.074;2023-04-24T14:30:54;18.40;69.50
53286;DHT22;39171;45.550;12.074;2023-04-24T14:36:55;18.40;69.20
53286;DHT22;39171;45.550;12.074;2023-04-24T14:42:56;18.50;69.00
53286;DHT22;39171;45.550;12.074;2023-04-24T14:48:58;18.40;68.80
53286;DHT22;39171;45.550;12.074;2023-04-24T14:54:59;18.40;68.50
53286;DHT22;39171;45.550;12.074;2023-04-24T15:01:01;18.40;68.50
53286;DHT22;39171;45.550;12.074;2023-04-24T15:07:03;18.40;68.40
53286;DHT22;39171;45.550;12.074;2023-04-24T15:13:05;18.30;68.50
53286;DHT22;39171;45.550;12.074;2023-04-24T15:19:06;18.30;68.40
53286;DHT22;39171;45.550;12.074;2023-04-24T15:25:09;18.30;68.20
53286;DHT22;39171;45.550;12.074;2023-04-24T15:31:11;18.30;68.30
53286;DHT22;39171;45.550;12.074;2023-04-24T15:37:12;18.30;68.20
53286;DHT22;39171;45.550;12.074;2023-04-24T15:43:13;18.20;68.30
53286;DHT22;39171;45.550;12.074;2023-04-24T15:49:15;18.30;68.30
53286;DHT22;39171;45.550;12.074;2023-04-24T15:55:16;18.20;68.10
53286;DHT22;39171;45.550;12.074;2023-04-24T16:01:17;18.20;68.00
53286;DHT22;39171;45.550;12.074;2023-04-24T16:07:18;18.20;67.80
53286;DHT22;39171;45.550;12.074;2023-04-24T16:13:19;18.20;67.80
53286;DHT22;39171;45.550;12.074;2023-04-24T16:19:21;18.20;67.80
53286;DHT22;39171;45.550;12.074;2023-04-24T16:25:22;18.20;67.90
53286;DHT22;39171;45.550;12.074;2023-04-24T16:31:23;18.20;68.00
53286;DHT22;39171;45.550;12.074;2023-04-24T16:37:24;18.20;68.20
53286;DHT22;39171;45.550;12.074;2023-04-24T16:43:26;18.10;68.20
53286;DHT22;39171;45.550;12.074;2023-04-24T16:49:27;18.10;68.30
53286;DHT22;39171;45.550;12.074;2023-04-24T16:55:31;18.10;68.40
53286;DHT22;39171;45.550;12.074;2023-04-24T17:01:32;18.10;68.40
53286;DHT22;39171;45.550;12.074;2023-04-24T17:07:33;18.00;68.40
53286;DHT22;39171;45.550;12.074;2023-04-24T17:13:34;18.00;68.50
53286;DHT22;39171;45.550;12.074;2023-04-24T17:19:35;18.00;68.80
53286;DHT22;39171;45.550;12.074;2023-04-24T17:25:37;18.00;68.90
53286;DHT22;39171;45.550;12.074;2023-04-24T17:31:38;18.00;68.90
53286;DHT22;39171;45.550;12.074;2023-04-24T17:37:39;18.00;69.30
53286;DHT22;39171;45.550;12.074;2023-04-24T17:43:41;18.00;69.50
53286;DHT22;39171;45.550;12.074;2023-04-24T17:49:42;18.00;69.80
53286;DHT22;39171;45.550;12.074;2023-04-24T17:55:43;17.90;69.50
53286;DHT22;39171;45.550;12.074;2023-04-24T18:01:46;17.90;69.70
53286;DHT22;39171;45.550;12.074;2023-04-24T18:07:47;17.90;69.70
53286;DHT22;39171;45.550;12.074;2023-04-24T18:13:48;17.90;70.00
53286;DHT22;39171;45.550;12.074;2023-04-24T18:19:50;17.90;70.30
53286;DHT22;39171;45.550;12.074;2023-04-24T18:25:51;17.90;70.40
53286;DHT22;39171;45.550;12.074;2023-04-24T18:31:53;17.80;71.00
53286;DHT22;39171;45.550;12.074;2023-04-24T18:37:54;17.90;71.00
53286;DHT22;39171;45.550;12.074;2023-04-24T18:43:55;17.80;71.10
53286;DHT22;39171;45.550;12.074;2023-04-24T18:49:58;17.90;71.60
53286;DHT22;39171;45.550;12.074;2023-04-24T18:56:00;17.80;71.30
53286;DHT22;39171;45.550;12.074;2023-04-24T19:02:01;17.80;71.90
53286;DHT22;39171;45.550;12.074;2023-04-24T19:08:02;17.80;71.90
53286;DHT22;39171;45.550;12.074;2023-04-24T19:14:07;17.80;72.20
53286;DHT22;39171;45.550;12.074;2023-04-24T19:20:08;17.80;72.40
53286;DHT22;39171;45.550;12.074;2023-04-24T19:26:09;17.80;72.60
53286;DHT22;39171;45.550;12.074;2023-04-24T19:32:11;17.80;72.80
53286;DHT22;39171;45.550;12.074;2023-04-24T19:38:12;17.80;72.80
53286;DHT22;39171;45.550;12.074;2023-04-24T19:44:13;17.80;73.10
53286;DHT22;39171;45.550;12.074;2023-04-24T19:50:16;17.80;73.30
53286;DHT22;39171;45.550;12.074;2023-04-24T19:56:18;17.80;73.40
53286;DHT22;39171;45.550;12.074;2023-04-24T20:02:19;17.70;73.50
53286;DHT22;39171;45.550;12.074;2023-04-24T20:08:20;17.70;73.80
53286;DHT22;39171;45.550;12.074;2023-04-24T20:14:21;17.70;73.90
53286;DHT22;39171;45.550;12.074;2023-04-24T20:20:26;17.70;74.00
53286;DHT22;39171;45.550;12.074;2023-04-24T20:26:27;17.70;74.10
53286;DHT22;39171;45.550;12.074;2023-04-24T20:32:28;17.70;74.20
53286;DHT22;39171;45.550;12.074;2023-04-24T20:38:29;17.70;74.40
53286;DHT22;39171;45.550;12.074;2023-04-24T20:44:31;17.70;74.40
53286;DHT22;39171;45.550;12.074;2023-04-24T20:50:32;17.70;74.40
53286;DHT22;39171;45.550;12.074;2023-04-24T20:56:33;17.70;74.60
53286;DHT22;39171;45.550;12.074;2023-04-24T21:02:37;17.70;74.60
53286;DHT22;39171;45.550;12.074;2023-04-24T21:08:38;17.70;74.60
53286;DHT22;39171;45.550;12.074;2023-04-24T21:14:39;17.70;74.70
53286;DHT22;39171;45.550;12.074;2023-04-24T21:20:40;17.60;74.70
53286;DHT22;39171;45.550;12.074;2023-04-24T21:26:42;17.70;74.70
53286;DHT22;39171;45.550;12.074;2023-04-24T21:32:43;17.70;74.70
53286;DHT22;39171;45.550;12.074;2023-04-24T21:38:44;17.70;74.90
53286;DHT22;39171;45.550;12.074;2023-04-24T21:44:45;17.60;75.00
53286;DHT22;39171;45.550;12.074;2023-04-24T21:50:47;17.60;75.10
53286;DHT22;39171;45.550;12.074;2023-04-24T21:56:48;17.60;75.20
53286;DHT22;39171;45.550;12.074;2023-04-24T22:02:49;17.60;75.30
53286;DHT22;39171;45.550;12.074;2023-04-24T22:08:50;17.60;75.30
53286;DHT22;39171;45.550;12.074;2023-04-24T22:14:52;17.60;75.50
53286;DHT22;39171;45.550;12.074;2023-04-24T22:20:53;17.60;75.70
53286;DHT22;39171;45.550;12.074;2023-04-24T22:26:55;17.50;75.60
53286;DHT22;39171;45.550;12.074;2023-04-24T22:32:57;17.50;75.70
53286;DHT22;39171;45.550;12.074;2023-04-24T22:38:58;17.50;75.80
53286;DHT22;39171;45.550;12.074;2023-04-24T22:44:59;17.50;75.90
53286;DHT22;39171;45.550;12.074;2023-04-24T22:51:00;17.50;76.00
53286;DHT22;39171;45.550;12.074;2023-04-24T22:57:02;17.50;76.00
53286;DHT22;39171;45.550;12.074;2023-04-24T23:03:03;17.50;76.40
53286;DHT22;39171;45.550;12.074;2023-04-24T23:09:05;17.50;76.50
53286;DHT22;39171;45.550;12.074;2023-04-24T23:15:07;17.40;76.70
53286;DHT22;39171;45.550;12.074;2023-04-24T23:21:08;17.50;76.60
53286;DHT22;39171;45.550;12.074;2023-04-24T23:27:09;17.50;76.70
53286;DHT22;39171;45.550;12.074;2023-04-24T23:33:11;17.40;76.70
53286;DHT22;39171;45.550;12.074;2023-04-24T23:39:12;17.40;76.80
53286;DHT22;39171;45.550;12.074;2023-04-24T23:45:13;17.40;76.80
53286;DHT22;39171;45.550;12.074;2023-04-24T23:51:14;17.40;76.80
53286;DHT22;39171;45.550;12.074;2023-04-24T23:57:16;17.40;76.90
